Time;durP1;ratioP1;P1;durP2;ratioP2;P2;SDS_P1;SDS_P2;PMS_P1;PMS_P2;Temp;Humidity;BMP_temperature;BMP_pressure;BME280_temperature;BME280_humidity;BME280_pressure;Samples;Min_cycle;Max_cycle;Signal;HPM_P1;HPM_P2
2022/06/01 00:00:31;;;;;;;7.20;5.18;;;12.30;91.60;;;;;;2083891;28;20045;-88
2022/06/01 00:01:50;;;;;;;7.70;5.50;;;12.30;91.60;;;;;;2081290;28;20030;-89
2022/06/01 00:03:10;;;;;;;6.63;5.55;;;12.30;91.70;;;;;;2086766;28;20036;-89
2022/06/01 00:04:29;;;;;;;6.13;5.18;;;12.30;91.70;;;;;;2092588;28;20489;-89
2022/06/01 00:05:53;;;;;;;6.22;5.40;;;12.20;91.70;;;;;;2075044;28;20494;-88
2022/06/01 00:07:12;;;;;;;6.75;5.47;;;12.20;91.70;;;;;;2087703;28;20025;-88
2022/06/01 00:08:32;;;;;;;6.90;5.57;;;12.20;91.70;;;;;;2084618;28;20450;-89
2022/06/01 00:09:53;;;;;;;6.68;5.22;;;12.20;91.70;;;;;;2085453;28;20030;-89
2022/06/01 00:11:13;;;;;;;7.05;5.65;;;12.20;92.00;;;;;;2067091;28;20796;-88
2022/06/01 00:12:34;;;;;;;7.50;5.93;;;12.20;91.70;;;;;;2074570;28;20416;-89
2022/06/01 00:13:54;;;;;;;7.32;5.72;;;12.20;91.70;;;;;;2089014;28;20072;-88
2022/06/01 00:15:15;;;;;;;8.02;6.10;;;12.20;91.70;;;;;;2084635;28;20041;-88
2022/06/01 00:16:35;;;;;;;7.07;5.93;;;12.20;91.70;;;;;;2084045;28;20061;-88
2022/06/01 00:17:57;;;;;;;8.88;6.30;;;12.20;91.70;;;;;;2072725;28;20030;-88
2022/06/01 00:19:16;;;;;;;7.32;5.65;;;12.20;91.80;;;;;;2065627;28;20533;-89
2022/06/01 00:20:36;;;;;;;7.15;6.00;;;12.20;91.80;;;;;;2077377;28;20029;-89
2022/06/01 00:22:14;;;;;;;7.30;5.93;;;12.20;91.80;;;;;;2076109;28;20567;-88
2022/06/01 00:23:33;;;;;;;7.50;6.15;;;12.20;91.80;;;;;;2074124;28;20500;-89
2022/06/01 00:24:52;;;;;;;8.38;6.53;;;12.20;91.80;;;;;;2073318;28;20428;-89
2022/06/01 00:26:11;;;;;;;7.30;6.18;;;12.20;91.80;;;;;;2085782;28;20033;-89
2022/06/01 00:27:31;;;;;;;7.10;6.13;;;12.10;91.80;;;;;;2067461;28;20512;-89
2022/06/01 00:28:50;;;;;;;8.27;6.40;;;12.20;91.80;;;;;;2070032;28;20058;-88
2022/06/01 00:30:12;;;;;;;8.35;6.70;;;12.10;91.80;;;;;;2072905;28;20112;-89
2022/06/01 00:31:32;;;;;;;8.15;6.22;;;12.10;91.80;;;;;;2078660;28;20033;-89
2022/06/01 00:32:51;;;;;;;7.63;6.07;;;12.10;91.80;;;;;;2072621;28;20030;-88
2022/06/01 00:34:10;;;;;;;8.48;7.32;;;12.10;91.80;;;;;;2067929;28;20034;-89
2022/06/01 00:35:29;;;;;;;7.00;5.85;;;12.10;91.80;;;;;;2072647;28;20046;-89
2022/06/01 00:36:49;;;;;;;8.13;6.70;;;12.10;91.80;;;;;;2075319;28;20034;-89
2022/06/01 00:38:09;;;;;;;7.25;6.25;;;12.10;91.80;;;;;;2082171;28;20025;-89
2022/06/01 00:39:28;;;;;;;9.43;6.45;;;12.10;91.80;;;;;;2067736;28;20042;-89
2022/06/01 00:40:48;;;;;;;7.37;6.27;;;12.10;91.80;;;;;;2076887;28;20029;-89
2022/06/01 00:42:23;;;;;;;7.50;6.67;;;12.10;91.80;;;;;;2087678;28;20295;-89
2022/06/01 00:43:44;;;;;;;7.22;6.28;;;12.10;91.80;;;;;;2083390;28;20284;-89
2022/06/01 00:45:05;;;;;;;7.57;6.55;;;12.10;91.90;;;;;;2086356;28;20037;-89
2022/06/01 00:46:25;;;;;;;9.00;6.97;;;12.10;91.80;;;;;;2083779;28;20022;-88
2022/06/01 00:47:44;;;;;;;7.28;6.20;;;12.10;91.80;;;;;;2072691;28;20042;-89
2022/06/01 00:49:17;;;;;;;7.72;6.18;;;12.10;91.80;;;;;;2077449;28;20064;-89
2022/06/01 00:50:39;;;;;;;8.75;7.05;;;12.10;91.80;;;;;;2082371;28;20033;-88
2022/06/01 00:51:58;;;;;;;7.60;6.38;;;12.00;91.80;;;;;;2081187;28;20049;-88
2022/06/01 00:53:22;;;;;;;7.97;6.75;;;12.10;91.80;;;;;;2078067;28;20037;-88
2022/06/01 00:54:41;;;;;;;7.68;6.53;;;12.00;91.80;;;;;;2092287;28;20037;-88
2022/06/01 00:56:11;;;;;;;9.55;7.05;;;12.10;91.90;;;;;;2091233;28;20025;-88
2022/06/01 00:57:31;;;;;;;8.38;6.90;;;12.00;91.90;;;;;;2082909;28;20510;-89
2022/06/01 00:58:55;;;;;;;9.02;6.95;;;12.00;91.90;;;;;;2073220;28;20030;-89
2022/06/01 01:00:24;;;;;;;8.05;6.70;;;12.00;91.90;;;;;;2079147;28;20045;-89
2022/06/01 01:01:43;;;;;;;9.20;7.30;;;12.00;91.90;;;;;;2079735;28;20124;-88
2022/06/01 01:03:05;;;;;;;8.27;6.32;;;12.00;91.90;;;;;;2080624;28;20045;-89
2022/06/01 01:04:26;;;;;;;8.32;6.63;;;12.00;91.90;;;;;;2090725;28;20029;-88
2022/06/01 01:05:55;;;;;;;7.70;6.43;;;12.00;91.90;;;;;;2081810;28;20030;-89
2022/06/01 01:07:15;;;;;;;7.85;6.78;;;12.00;91.90;;;;;;2087898;28;20033;-89
2022/06/01 01:08:34;;;;;;;7.72;6.85;;;12.00;91.90;;;;;;2072687;28;20046;-89
2022/06/01 01:09:53;;;;;;;7.95;6.70;;;12.00;91.90;;;;;;2078624;28;20057;-90
2022/06/01 01:11:14;;;;;;;7.90;6.53;;;12.00;91.90;;;;;;2074843;28;20029;-89
2022/06/01 01:12:55;;;;;;;;;;;12.00;91.90;;;;;;2077956;28;20037;-89
2022/06/01 01:14:15;;;;;;;7.43;5.80;;;12.10;91.90;;;;;;2081791;28;19917;-89
2022/06/01 01:15:39;;;;;;;6.82;5.80;;;12.10;91.80;;;;;;2081952;28;20045;-90
2022/06/01 01:16:59;;;;;;;8.13;6.70;;;12.00;91.80;;;;;;2080581;28;20462;-89
2022/06/01 01:18:25;;;;;;;7.47;6.18;;;12.00;91.80;;;;;;2075365;28;20033;-89
2022/06/01 01:19:48;;;;;;;8.40;6.55;;;12.00;91.90;;;;;;2088842;28;20459;-90
2022/06/01 01:21:44;;;;;;;9.07;6.97;;;12.00;92.10;;;;;;2074526;28;20058;-89
2022/06/01 01:23:10;;;;;;;7.32;6.03;;;12.00;91.90;;;;;;2074462;28;20030;-89
2022/06/01 01:24:39;;;;;;;7.28;6.10;;;12.00;91.90;;;;;;2084820;28;20061;-89
2022/06/01 01:25:58;;;;;;;8.10;6.80;;;12.00;92.00;;;;;;2081805;28;20037;-89
2022/06/01 01:27:17;;;;;;;8.63;6.50;;;12.00;92.00;;;;;;2078968;28;20033;-88
2022/06/01 01:28:36;;;;;;;8.65;7.18;;;12.00;92.00;;;;;;2081920;28;20450;-88
2022/06/01 01:29:55;;;;;;;7.53;6.57;;;12.00;92.00;;;;;;2082096;28;20041;-88
2022/06/01 01:31:20;;;;;;;7.68;6.70;;;12.00;92.00;;;;;;2070721;28;20034;-88
2022/06/01 01:32:40;;;;;;;7.25;6.35;;;11.90;92.10;;;;;;2088407;28;20104;-87
2022/06/01 01:33:59;;;;;;;8.02;6.75;;;11.90;92.10;;;;;;2080588;28;20432;-87
2022/06/01 01:35:19;;;;;;;8.13;7.03;;;11.90;92.10;;;;;;2073761;28;20041;-88
2022/06/01 01:36:48;;;;;;;8.45;7.05;;;11.90;92.10;;;;;;2070993;28;20021;-88
2022/06/01 01:38:13;;;;;;;9.35;6.57;;;11.90;92.20;;;;;;2086862;28;20493;-87
2022/06/01 01:39:35;;;;;;;7.57;6.45;;;11.90;92.20;;;;;;2080249;28;21739;-88
2022/06/01 01:41:11;;;;;;;7.25;6.07;;;11.90;92.20;;;;;;2092071;28;20037;-87
2022/06/01 01:42:30;;;;;;;7.53;6.35;;;11.90;92.30;;;;;;2090918;28;20029;-88
2022/06/01 01:44:11;;;;;;;7.05;6.05;;;11.90;92.30;;;;;;2087661;28;20033;-88
2022/06/01 01:45:33;;;;;;;7.05;5.40;;;11.90;92.30;;;;;;2090437;28;20021;-88
2022/06/01 01:46:54;;;;;;;7.50;5.88;;;11.90;92.40;;;;;;2090039;28;20040;-88
2022/06/01 01:48:13;;;;;;;7.28;6.30;;;11.90;92.40;;;;;;2074134;28;20050;-88
2022/06/01 01:49:35;;;;;;;7.05;6.20;;;11.80;92.40;;;;;;2079424;28;20049;-88
2022/06/01 01:50:54;;;;;;;7.45;6.30;;;11.80;92.40;;;;;;2089887;28;20036;-89
2022/06/01 01:52:15;;;;;;;7.68;6.05;;;11.80;92.40;;;;;;2088528;28;20439;-88
2022/06/01 01:53:35;;;;;;;7.32;6.18;;;11.80;92.50;;;;;;2095059;28;20024;-89
2022/06/01 01:55:08;;;;;;;7.40;5.72;;;11.80;92.50;;;;;;2090153;28;20053;-89
2022/06/01 01:56:35;;;;;;;7.63;6.38;;;11.80;92.50;;;;;;2089127;28;20033;-88
2022/06/01 01:58:21;;;;;;;7.45;6.13;;;11.80;92.50;;;;;;2088312;28;20107;-88
2022/06/01 02:00:14;;;;;;;7.35;6.18;;;11.80;92.50;;;;;;2082245;28;20041;-89
2022/06/01 02:01:45;;;;;;;6.80;5.85;;;11.80;92.50;;;;;;2099052;28;20033;-89
2022/06/01 02:03:13;;;;;;;6.82;5.50;;;11.80;92.50;;;;;;2085522;28;20402;-88
2022/06/01 02:06:46;;;;;;;7.18;5.35;;;11.80;92.60;;;;;;2105941;28;20099;-89
2022/06/01 02:08:18;;;;;;;6.78;5.50;;;11.80;92.50;;;;;;2096765;28;20029;-88
2022/06/01 02:13:18;;;;;;;6.40;5.35;;;11.80;92.60;;;;;;2093001;28;20029;-89
2022/06/01 02:14:40;;;;;;;7.22;5.30;;;11.80;92.60;;;;;;2089215;28;20041;-88
2022/06/01 02:16:01;;;;;;;7.00;5.50;;;11.80;92.60;;;;;;2088872;28;20037;-88
2022/06/01 02:17:33;;;;;;;7.78;6.40;;;11.80;92.60;;;;;;2082041;28;20037;-88
2022/06/01 02:18:56;;;;;;;7.20;5.65;;;11.80;92.60;;;;;;2093730;28;20040;-88
2022/06/01 02:20:21;;;;;;;6.93;5.68;;;11.70;92.60;;;;;;2085730;28;20418;-88
2022/06/01 02:21:41;;;;;;;7.38;6.10;;;11.80;92.70;;;;;;2090784;28;20403;-88
2022/06/01 02:23:01;;;;;;;6.78;5.75;;;11.80;92.70;;;;;;2092533;28;20099;-88
2022/06/01 02:24:23;;;;;;;7.15;5.78;;;11.80;92.70;;;;;;2098863;28;20078;-88
2022/06/01 02:25:48;;;;;;;6.30;5.45;;;11.80;92.70;;;;;;2099049;28;20029;-88
2022/06/01 02:27:09;;;;;;;6.25;5.40;;;11.80;92.70;;;;;;2090198;28;20115;-88
2022/06/01 02:28:29;;;;;;;7.95;5.85;;;11.80;92.70;;;;;;2086991;28;20025;-88
2022/06/01 02:29:58;;;;;;;6.70;5.35;;;11.80;93.00;;;;;;2069564;28;20034;-89
2022/06/01 02:31:18;;;;;;;7.10;5.20;;;11.70;92.70;;;;;;2076154;28;20529;-88
2022/06/01 02:32:40;;;;;;;6.18;5.05;;;11.70;92.70;;;;;;2081696;28;20033;-88
2022/06/01 02:34:01;;;;;;;6.53;4.80;;;11.70;92.70;;;;;;2091204;28;20025;-87
2022/06/01 02:35:23;;;;;;;6.82;5.25;;;11.70;92.70;;;;;;2081697;28;20029;-88
2022/06/01 02:36:43;;;;;;;5.45;4.50;;;11.70;92.70;;;;;;2082765;28;20488;-87
2022/06/01 02:38:05;;;;;;;;;;;11.70;93.00;;;;;;2087278;28;20554;-87
2022/06/01 02:39:25;;;;;;;;;;;11.70;92.70;;;;;;2090306;28;20007;-87
2022/06/01 02:40:44;;;;;;;4.87;3.80;;;11.70;92.60;;;;;;2082995;28;19917;-87
2022/06/01 02:42:25;;;;;;;4.75;3.72;;;11.60;92.80;;;;;;2089894;28;20666;-87
2022/06/01 02:43:49;;;;;;;5.35;3.72;;;11.60;92.60;;;;;;2090603;28;20391;-86
2022/06/01 02:45:10;;;;;;;4.57;3.50;;;11.60;92.60;;;;;;2097885;28;20064;-87
2022/06/01 02:46:30;;;;;;;4.70;3.58;;;11.60;92.70;;;;;;2089679;28;20036;-87
2022/06/01 02:47:52;;;;;;;5.50;3.75;;;11.60;92.70;;;;;;2086763;28;20033;-87
2022/06/01 02:49:12;;;;;;;4.68;3.58;;;11.60;92.80;;;;;;2094886;28;20422;-86
2022/06/01 02:50:33;;;;;;;4.80;3.20;;;11.60;92.80;;;;;;2097117;28;20029;-86
2022/06/01 02:51:53;;;;;;;4.47;3.40;;;11.60;92.90;;;;;;2081199;28;20451;-86
2022/06/01 02:53:12;;;;;;;5.25;4.00;;;11.50;92.90;;;;;;2078359;28;20045;-87
2022/06/01 02:54:31;;;;;;;4.35;3.42;;;11.50;92.90;;;;;;2077148;28;20419;-86
2022/06/01 02:55:50;;;;;;;4.63;3.63;;;11.60;92.90;;;;;;2086156;28;20025;-87
2022/06/01 02:57:09;;;;;;;4.55;3.53;;;11.60;93.00;;;;;;2079826;28;20100;-86
2022/06/01 02:58:29;;;;;;;4.88;3.70;;;11.60;93.00;;;;;;2070347;28;20041;-87
2022/06/01 02:59:49;;;;;;;4.90;3.97;;;11.50;93.20;;;;;;2055920;28;20121;-87
2022/06/01 03:01:09;;;;;;;;;;;11.50;93.00;;;;;;2065780;28;20038;-87
2022/06/01 03:02:28;;;;;;;4.25;3.10;;;11.50;92.90;;;;;;2087052;28;19908;-87
2022/06/01 03:03:47;;;;;;;4.70;3.47;;;11.50;92.90;;;;;;2080240;28;20108;-87
2022/06/01 03:05:07;;;;;;;4.35;3.28;;;11.50;92.90;;;;;;2070270;28;20502;-86
2022/06/01 03:06:27;;;;;;;4.75;3.35;;;11.50;93.00;;;;;;2078011;28;20112;-87
2022/06/01 03:07:46;;;;;;;4.45;3.10;;;11.50;93.00;;;;;;2062186;28;20034;-87
2022/06/01 03:09:05;;;;;;;4.70;3.35;;;11.50;93.10;;;;;;2060082;28;20058;-87
2022/06/01 03:10:25;;;;;;;4.65;3.28;;;11.50;93.10;;;;;;2059099;28;20031;-87
2022/06/01 03:11:44;;;;;;;4.57;3.47;;;11.50;93.10;;;;;;2075694;28;20022;-87
2022/06/01 03:13:04;;;;;;;5.05;3.40;;;11.50;93.10;;;;;;2082158;28;20033;-87
2022/06/01 03:14:23;;;;;;;4.32;3.15;;;11.50;93.10;;;;;;2074720;28;20029;-87
2022/06/01 03:15:42;;;;;;;4.40;3.30;;;11.50;93.10;;;;;;2086884;28;20033;-87
2022/06/01 03:17:02;;;;;;;4.28;3.22;;;11.50;93.20;;;;;;2089990;28;20045;-87
2022/06/01 03:18:21;;;;;;;5.03;3.13;;;11.50;93.20;;;;;;2081394;28;20025;-87
2022/06/01 03:19:40;;;;;;;5.70;2.88;;;11.40;93.20;;;;;;2069661;28;20067;-86
2022/06/01 03:21:00;;;;;;;4.47;3.20;;;11.50;93.20;;;;;;2069813;28;20026;-87
2022/06/01 03:22:19;;;;;;;4.50;3.20;;;11.50;93.20;;;;;;2070036;28;20491;-87
2022/06/01 03:23:40;;;;;;;4.25;3.30;;;11.50;93.20;;;;;;2078587;28;20037;-87
2022/06/01 03:24:59;;;;;;;4.25;3.25;;;11.50;93.20;;;;;;2068364;28;20610;-87
2022/06/01 03:26:18;;;;;;;4.18;2.97;;;11.50;93.20;;;;;;2071236;28;20029;-86
2022/06/01 03:27:38;;;;;;;4.25;3.03;;;11.50;93.20;;;;;;2072259;28;20021;-87
2022/06/01 03:28:57;;;;;;;4.13;3.03;;;11.50;93.20;;;;;;2066763;28;20041;-87
2022/06/01 03:30:18;;;;;;;4.35;3.40;;;11.50;93.20;;;;;;2066379;28;20511;-87
2022/06/01 03:31:38;;;;;;;4.38;3.30;;;11.50;93.20;;;;;;2071279;28;20031;-86
2022/06/01 03:32:58;;;;;;;3.50;2.83;;;11.40;93.20;;;;;;2075545;28;20029;-86
2022/06/01 03:34:18;;;;;;;3.95;2.95;;;11.40;93.20;;;;;;2081863;28;20029;-87
2022/06/01 03:35:37;;;;;;;4.53;3.10;;;11.40;93.20;;;;;;2059611;28;20038;-87
2022/06/01 03:36:57;;;;;;;4.45;3.28;;;11.40;93.30;;;;;;2065391;28;20034;-87
2022/06/01 03:38:16;;;;;;;3.97;3.13;;;11.40;93.30;;;;;;2086697;28;20032;-87
2022/06/01 03:39:35;;;;;;;4.38;3.15;;;11.40;93.30;;;;;;2080724;28;20033;-87
2022/06/01 03:40:54;;;;;;;4.60;3.20;;;11.40;93.30;;;;;;2076500;28;20065;-87
2022/06/01 03:42:14;;;;;;;4.35;2.90;;;11.30;93.30;;;;;;2079213;28;20070;-87
2022/06/01 03:45:55;;;;;;;4.45;3.17;;;11.30;93.50;;;;;;2081225;28;20455;-87
2022/06/01 03:47:00;;;;;;;4.47;3.05;;;11.30;93.30;;;;;;2081207;28;20042;-87
2022/06/01 03:48:21;;;;;;;3.97;2.72;;;11.30;93.30;;;;;;2080521;28;20041;-87
2022/06/01 03:49:42;;;;;;;3.53;2.75;;;11.30;93.30;;;;;;2086741;28;20025;-87
2022/06/01 03:51:02;;;;;;;4.13;2.97;;;11.30;93.30;;;;;;2091099;28;20080;-87
2022/06/01 03:52:21;;;;;;;3.83;2.83;;;11.30;93.30;;;;;;2098471;28;20041;-87
2022/06/01 03:53:41;;;;;;;4.10;3.20;;;11.30;93.30;;;;;;2090177;28;20387;-87
2022/06/01 03:55:00;;;;;;;3.67;2.85;;;11.20;93.30;;;;;;2091029;28;20029;-87
2022/06/01 03:56:22;;;;;;;4.20;2.90;;;11.20;93.30;;;;;;2089763;28;20064;-87
2022/06/01 03:57:43;;;;;;;4.30;3.15;;;11.20;93.40;;;;;;2089899;28;20037;-87
2022/06/01 03:59:02;;;;;;;3.55;2.83;;;11.20;93.40;;;;;;2099289;28;20041;-87
2022/06/01 04:00:25;;;;;;;4.65;3.20;;;11.20;93.40;;;;;;2087159;28;20503;-87
2022/06/01 04:01:44;;;;;;;3.65;2.80;;;11.10;93.40;;;;;;2095432;28;20103;-87
2022/06/01 04:03:03;;;;;;;3.95;2.85;;;11.10;93.40;;;;;;2081388;28;20034;-87
2022/06/01 04:04:22;;;;;;;3.92;2.85;;;11.20;93.50;;;;;;2065827;28;21242;-87
2022/06/01 04:05:42;;;;;;;4.13;3.15;;;11.20;93.50;;;;;;2067834;28;20552;-87
2022/06/01 04:07:02;;;;;;;4.88;3.30;;;11.20;93.50;;;;;;2082574;28;20028;-87
2022/06/01 04:08:21;;;;;;;4.32;3.17;;;11.20;93.50;;;;;;2094883;28;20029;-87
2022/06/01 04:09:41;;;;;;;4.45;3.30;;;11.20;93.50;;;;;;2080092;28;20053;-86
2022/06/01 04:11:00;;;;;;;4.30;3.30;;;11.20;93.50;;;;;;2090565;28;20033;-87
2022/06/01 04:12:19;;;;;;;4.97;3.20;;;11.20;93.70;;;;;;2072962;28;20516;-87
2022/06/01 04:13:38;;;;;;;4.40;3.42;;;11.20;93.40;;;;;;2079773;28;20048;-87
2022/06/01 04:14:58;;;;;;;4.63;3.55;;;11.20;93.40;;;;;;2095003;28;20036;-87
2022/06/01 04:16:18;;;;;;;4.50;3.33;;;11.20;93.40;;;;;;2096912;28;20091;-87
2022/06/01 04:17:38;;;;;;;4.57;3.58;;;11.20;93.40;;;;;;2100053;28;20045;-87
2022/06/01 04:18:57;;;;;;;4.70;3.40;;;11.20;93.40;;;;;;2087997;28;20029;-87
2022/06/01 04:20:16;;;;;;;4.93;3.63;;;11.20;93.40;;;;;;2078877;28;20116;-87
2022/06/01 04:21:39;;;;;;;4.75;3.47;;;11.20;93.40;;;;;;2082791;28;20526;-87
2022/06/01 04:23:00;;;;;;;4.78;3.40;;;11.20;93.40;;;;;;2087753;28;20025;-87
2022/06/01 04:24:25;;;;;;;5.05;3.28;;;11.30;93.40;;;;;;2094678;28;20479;-87
2022/06/01 04:25:44;;;;;;;4.57;3.55;;;11.30;93.40;;;;;;2089443;28;20076;-86
2022/06/01 04:27:04;;;;;;;4.72;3.40;;;11.30;93.30;;;;;;2089313;28;20457;-88
2022/06/01 04:28:24;;;;;;;4.15;3.25;;;11.30;93.30;;;;;;2087948;28;20570;-87
2022/06/01 04:29:43;;;;;;;4.22;3.13;;;11.30;93.30;;;;;;2085293;28;20041;-86
2022/06/01 04:31:02;;;;;;;5.40;3.70;;;11.40;93.30;;;;;;2072646;28;20025;-87
2022/06/01 04:32:28;;;;;;;4.45;3.47;;;11.40;93.30;;;;;;2069915;28;20038;-87
2022/06/01 04:33:48;;;;;;;4.70;3.50;;;11.50;93.30;;;;;;2078794;28;20021;-87
2022/06/01 04:35:07;;;;;;;5.35;3.97;;;11.40;93.20;;;;;;2082793;28;20034;-87
2022/06/01 04:36:27;;;;;;;5.22;3.67;;;11.50;93.20;;;;;;2077649;28;20029;-87
2022/06/01 04:37:46;;;;;;;5.32;3.40;;;11.60;93.20;;;;;;2084101;28;20434;-88
2022/06/01 04:39:07;;;;;;;5.80;4.20;;;11.60;93.20;;;;;;2095118;28;20025;-89
2022/06/01 04:40:26;;;;;;;5.18;4.07;;;11.60;93.10;;;;;;2079402;28;20029;-88
2022/06/01 04:41:45;;;;;;;5.75;4.60;;;11.70;93.10;;;;;;2074601;28;20026;-87
2022/06/01 04:43:04;;;;;;;5.60;4.50;;;11.70;93.10;;;;;;2079169;28;20029;-87
2022/06/01 04:44:25;;;;;;;6.22;4.28;;;11.70;93.10;;;;;;2079307;28;20029;-86
2022/06/01 04:45:44;;;;;;;7.00;4.70;;;11.80;93.00;;;;;;2087933;28;20045;-88
2022/06/01 04:47:04;;;;;;;5.93;4.75;;;11.80;93.00;;;;;;2094060;28;20036;-88
2022/06/01 04:48:24;;;;;;;7.78;5.38;;;11.90;92.90;;;;;;2074141;28;20108;-88
2022/06/01 04:49:43;;;;;;;6.32;5.00;;;11.90;92.90;;;;;;2073926;28;20511;-86
2022/06/01 04:51:03;;;;;;;8.10;5.85;;;11.90;92.90;;;;;;2080026;28;20439;-87
2022/06/01 04:52:22;;;;;;;7.20;5.68;;;12.00;92.90;;;;;;2081490;28;20041;-87
2022/06/01 04:53:43;;;;;;;8.18;6.25;;;12.00;92.90;;;;;;2083434;28;20442;-87
2022/06/01 04:55:03;;;;;;;;;;;12.00;92.90;;;;;;2079886;28;20033;-87
2022/06/01 04:56:22;;;;;;;7.32;5.70;;;12.10;92.80;;;;;;2086094;28;19909;-88
2022/06/01 04:57:41;;;;;;;7.25;6.07;;;12.10;92.80;;;;;;2088493;28;20033;-88
2022/06/01 04:59:01;;;;;;;7.85;6.38;;;12.10;92.80;;;;;;2081170;28;20029;-89
2022/06/01 05:00:23;;;;;;;7.75;6.32;;;12.20;92.80;;;;;;2076579;28;20100;-88
2022/06/01 05:01:46;;;;;;;8.40;6.50;;;12.20;92.80;;;;;;2080176;28;20490;-88
2022/06/01 05:03:06;;;;;;;8.95;6.88;;;12.20;92.80;;;;;;2095833;28;20452;-85
2022/06/01 05:04:28;;;;;;;8.93;7.05;;;12.20;92.70;;;;;;2097586;28;20032;-87
2022/06/01 05:05:47;;;;;;;8.70;7.47;;;12.20;92.70;;;;;;2081701;28;20034;-88
2022/06/01 05:07:07;;;;;;;9.40;7.30;;;12.30;92.70;;;;;;2075688;28;20108;-88
2022/06/01 05:08:26;;;;;;;8.88;7.32;;;12.30;92.70;;;;;;2083573;28;20057;-88
2022/06/01 05:09:45;;;;;;;9.68;7.80;;;12.30;92.60;;;;;;2095123;28;20152;-88
2022/06/01 05:11:05;;;;;;;10.25;7.63;;;12.30;92.70;;;;;;2096981;28;20032;-87
2022/06/01 05:12:24;;;;;;;11.43;8.45;;;12.30;92.70;;;;;;2078908;28;20049;-88
2022/06/01 05:13:44;;;;;;;9.40;8.00;;;12.30;92.70;;;;;;2092301;28;20036;-88
2022/06/01 05:15:04;;;;;;;10.40;8.55;;;12.20;92.70;;;;;;2083350;28;20049;-88
2022/06/01 05:16:23;;;;;;;10.93;9.07;;;12.20;92.80;;;;;;2076073;28;20068;-88
2022/06/01 05:17:42;;;;;;;10.68;8.98;;;12.20;92.80;;;;;;2092877;28;20037;-88
2022/06/01 05:19:01;;;;;;;11.68;9.50;;;12.10;92.80;;;;;;2090624;28;20108;-88
2022/06/01 05:20:20;;;;;;;9.77;8.63;;;12.10;92.80;;;;;;2078943;28;20045;-88
2022/06/01 05:21:40;;;;;;;11.13;8.98;;;12.00;92.90;;;;;;2063086;28;20030;-88
2022/06/01 05:22:59;;;;;;;10.75;8.95;;;12.00;92.90;;;;;;2085876;28;20053;-88
2022/06/01 05:24:18;;;;;;;10.02;8.32;;;12.00;93.00;;;;;;2079141;28;20037;-88
2022/06/01 05:25:38;;;;;;;10.35;8.80;;;12.00;93.00;;;;;;2085183;28;20451;-88
2022/06/01 05:26:57;;;;;;;11.80;8.57;;;12.00;93.00;;;;;;2087567;28;20038;-88
2022/06/01 05:28:20;;;;;;;10.70;8.75;;;12.00;93.30;;;;;;2074217;28;20026;-88
2022/06/01 05:29:39;;;;;;;9.63;8.18;;;12.00;93.00;;;;;;2085945;28;20068;-86
2022/06/01 05:31:05;;;;;;;10.45;8.77;;;11.90;93.00;;;;;;2080742;28;20018;-88
2022/06/01 05:32:25;;;;;;;9.43;7.78;;;11.90;93.00;;;;;;2085724;28;20029;-88
2022/06/01 05:33:44;;;;;;;9.82;8.38;;;12.00;93.20;;;;;;2074115;28;20042;-88
2022/06/01 05:35:03;;;;;;;10.20;8.48;;;12.00;93.10;;;;;;2084104;28;20068;-89
2022/06/01 05:36:23;;;;;;;11.43;8.48;;;12.10;93.00;;;;;;2094636;28;20115;-87
2022/06/01 05:37:42;;;;;;;9.60;8.43;;;12.20;92.90;;;;;;2096701;28;20066;-87
2022/06/01 05:39:01;;;;;;;10.20;8.43;;;12.30;92.80;;;;;;2077830;28;20072;-88
2022/06/01 05:40:21;;;;;;;10.50;8.35;;;12.30;92.70;;;;;;2078593;28;20026;-88
2022/06/01 05:41:40;;;;;;;9.05;8.13;;;12.40;92.70;;;;;;2083771;28;20514;-89
2022/06/01 05:42:59;;;;;;;11.05;8.30;;;12.50;92.60;;;;;;2079229;28;20038;-88
2022/06/01 05:44:19;;;;;;;10.43;7.93;;;12.60;92.50;;;;;;2073830;28;20562;-88
2022/06/01 05:45:39;;;;;;;10.05;8.13;;;12.70;92.40;;;;;;2079098;28;20026;-88
2022/06/01 05:47:01;;;;;;;9.40;7.80;;;12.80;92.30;;;;;;2094590;28;20032;-88
2022/06/01 05:48:22;;;;;;;10.48;8.10;;;12.90;92.20;;;;;;2099985;28;20107;-88
2022/06/01 05:49:41;;;;;;;9.20;7.68;;;12.90;92.10;;;;;;2095622;28;20473;-88
2022/06/01 05:51:00;;;;;;;8.93;7.53;;;13.00;92.00;;;;;;2088322;28;20426;-88
2022/06/01 05:52:19;;;;;;;9.60;7.90;;;13.10;92.00;;;;;;2074072;28;20046;-88
2022/06/01 05:53:38;;;;;;;11.20;8.90;;;13.10;92.00;;;;;;2083912;28;20068;-88
2022/06/01 05:54:57;;;;;;;9.77;8.18;;;13.20;91.90;;;;;;2091190;28;20040;-88
2022/06/01 05:56:16;;;;;;;9.68;7.95;;;13.30;91.80;;;;;;2075108;28;20017;-88
2022/06/01 05:57:35;;;;;;;9.70;7.72;;;13.40;91.80;;;;;;2078184;28;20033;-88
2022/06/01 05:58:55;;;;;;;8.95;7.20;;;13.40;91.70;;;;;;2070759;28;20101;-88
2022/06/01 06:00:16;;;;;;;8.65;7.22;;;13.50;91.70;;;;;;2070071;28;20120;-88
2022/06/01 06:01:36;;;;;;;8.80;6.90;;;13.50;91.60;;;;;;2071555;28;20030;-88
2022/06/01 06:02:55;;;;;;;8.15;6.78;;;13.60;91.60;;;;;;2079836;28;20037;-88
2022/06/01 06:04:14;;;;;;;7.38;6.25;;;13.70;91.80;;;;;;2066229;28;20481;-88
2022/06/01 06:07:13;;;;;;;7.72;6.05;;;13.80;91.50;;;;;;2078642;28;20124;-88
2022/06/01 06:08:32;;;;;;;7.25;5.72;;;13.80;91.40;;;;;;2072987;28;20038;-88
2022/06/01 06:09:51;;;;;;;7.07;5.60;;;13.90;91.30;;;;;;2082600;28;20456;-88
2022/06/01 06:11:11;;;;;;;7.25;5.43;;;14.00;91.30;;;;;;2081536;28;20029;-88
2022/06/01 06:12:32;;;;;;;;;;;14.00;91.20;;;;;;2087807;28;20471;-88
2022/06/01 06:13:52;;;;;;;6.40;4.68;;;14.10;91.20;;;;;;2090867;28;19983;-88
2022/06/01 06:15:11;;;;;;;6.07;4.53;;;14.10;91.10;;;;;;2081181;28;20049;-87
2022/06/01 06:16:36;;;;;;;6.22;4.65;;;14.20;91.00;;;;;;2070677;28;20034;-88
2022/06/01 06:17:55;;;;;;;6.00;4.10;;;14.20;91.00;;;;;;2077071;28;20538;-88
2022/06/01 06:19:16;;;;;;;5.88;4.60;;;14.20;90.90;;;;;;2069170;28;20030;-88
2022/06/01 06:20:35;;;;;;;6.13;4.22;;;14.20;90.80;;;;;;2067189;28;20038;-88
2022/06/01 06:21:55;;;;;;;5.30;3.92;;;14.20;90.80;;;;;;2079042;28;20515;-87
2022/06/01 06:23:14;;;;;;;5.30;3.97;;;14.20;90.70;;;;;;2081641;28;20388;-88
2022/06/01 06:24:34;;;;;;;6.20;4.47;;;14.20;90.70;;;;;;2068913;28;20034;-88
2022/06/01 06:25:53;;;;;;;5.55;3.90;;;14.20;90.70;;;;;;2080903;28;20056;-88
2022/06/01 06:27:12;;;;;;;5.70;3.80;;;14.30;90.80;;;;;;2082626;28;20116;-88
2022/06/01 06:28:32;;;;;;;5.43;3.83;;;14.30;90.70;;;;;;2065725;28;20030;-88
2022/06/01 06:29:51;;;;;;;6.00;4.05;;;14.40;90.70;;;;;;2075246;28;20046;-88
2022/06/01 06:31:11;;;;;;;5.22;3.78;;;14.40;90.60;;;;;;2078258;28;20033;-88
2022/06/01 06:32:30;;;;;;;6.05;4.10;;;14.40;90.50;;;;;;2071925;28;20042;-88
2022/06/01 06:33:49;;;;;;;5.72;3.88;;;14.50;90.50;;;;;;2075386;28;20033;-88
2022/06/01 06:35:09;;;;;;;5.55;3.60;;;14.50;90.40;;;;;;2072644;28;20034;-88
2022/06/01 06:36:29;;;;;;;6.80;3.80;;;14.60;90.40;;;;;;2075990;28;20025;-88
2022/06/01 06:37:48;;;;;;;5.05;3.60;;;14.60;90.30;;;;;;2086722;28;20025;-88
2022/06/01 06:39:07;;;;;;;4.70;3.38;;;14.70;90.30;;;;;;2088909;28;20021;-88
2022/06/01 06:40:27;;;;;;;4.60;3.50;;;14.80;90.20;;;;;;2068682;28;20141;-88
2022/06/01 06:41:46;;;;;;;5.10;3.38;;;14.80;90.20;;;;;;2073132;28;20030;-87
2022/06/01 06:43:05;;;;;;;4.65;3.35;;;14.90;90.20;;;;;;2086290;28;20481;-88
2022/06/01 06:44:24;;;;;;;5.78;4.00;;;14.90;90.10;;;;;;2068675;28;20035;-88
2022/06/01 06:45:48;;;;;;;5.10;3.55;;;15.00;90.10;;;;;;2073848;28;20040;-88
2022/06/01 06:47:07;;;;;;;6.20;3.80;;;15.00;90.00;;;;;;2087818;28;20033;-88
2022/06/01 06:48:27;;;;;;;5.88;3.83;;;15.10;90.00;;;;;;2090416;28;20029;-88
2022/06/01 06:49:46;;;;;;;4.97;3.58;;;15.10;89.90;;;;;;2073210;28;20085;-88
2022/06/01 06:51:06;;;;;;;5.00;3.45;;;15.20;90.20;;;;;;2070156;28;20483;-89
2022/06/01 06:52:26;;;;;;;5.00;3.42;;;15.20;89.80;;;;;;2073654;28;20045;-88
2022/06/01 06:53:45;;;;;;;5.57;3.55;;;15.30;89.70;;;;;;2078757;28;20022;-88
2022/06/01 06:55:06;;;;;;;4.97;3.60;;;15.30;89.60;;;;;;2075632;28;20531;-89
2022/06/01 06:56:27;;;;;;;4.72;3.58;;;15.30;89.50;;;;;;2070386;28;20038;-88
2022/06/01 06:57:46;;;;;;;5.85;3.30;;;15.30;89.40;;;;;;2075945;28;20112;-89
2022/06/01 06:59:05;;;;;;;5.03;3.22;;;15.30;89.40;;;;;;2077957;28;20033;-88
2022/06/01 07:00:25;;;;;;;7.28;3.50;;;15.30;89.30;;;;;;2070241;28;20448;-88
2022/06/01 07:01:44;;;;;;;4.45;3.45;;;15.30;89.30;;;;;;2075576;28;20061;-89
2022/06/01 07:03:05;;;;;;;6.32;3.67;;;15.30;89.40;;;;;;2062470;28;20034;-89
2022/06/01 07:04:24;;;;;;;5.20;3.45;;;15.30;89.20;;;;;;2069728;28;20038;-89
2022/06/01 07:07:22;;;;;;;3.80;2.60;;;15.40;89.20;;;;;;2073150;28;20042;-88
2022/06/01 07:08:47;;;;;;;4.43;2.90;;;15.40;89.20;;;;;;2076051;28;20034;-88
2022/06/01 07:10:07;;;;;;;3.80;2.75;;;15.40;89.00;;;;;;2078769;28;20104;-89
2022/06/01 07:11:28;;;;;;;5.68;2.95;;;15.60;89.00;;;;;;2086866;28;20029;-89
2022/06/01 07:12:48;;;;;;;4.35;2.70;;;15.60;88.70;;;;;;2067594;28;20030;-88
2022/06/01 07:14:07;;;;;;;4.15;2.65;;;15.70;88.50;;;;;;2068534;28;20066;-89